createdAt,value
2019-04-14T00:00:55.408Z,44.46
2019-04-14T00:03:26.885Z,44.49
2019-04-14T00:05:54.281Z,44.44
2019-04-14T00:08:22.107Z,44.43
2019-04-14T00:10:49.357Z,44.56
2019-04-14T00:13:17.496Z,44.51
2019-04-14T00:15:48.498Z,44.53
2019-04-14T00:18:11.825Z,44.28
2019-04-14T00:20:38.997Z,44.44
2019-04-14T00:23:06.614Z,44.82
2019-04-14T00:25:34.772Z,45.04
2019-04-14T00:28:01.234Z,44.73
2019-04-14T00:30:29.471Z,44.32
2019-04-14T00:32:57.630Z,44.36
2019-04-14T00:35:36.430Z,44.34
2019-04-14T00:41:00.713Z,43.81
2019-04-14T00:43:45.846Z,43.95
2019-04-14T00:46:13.282Z,44.03
2019-04-14T00:48:40.974Z,44.33
2019-04-14T00:51:09.140Z,44.30
2019-04-14T00:53:36.003Z,44.48
2019-04-14T00:56:04.054Z,44.90
2019-04-14T00:58:30.437Z,45.11
2019-04-14T01:00:58.063Z,45.16
2019-04-14T01:03:25.245Z,45.43
2019-04-14T01:05:52.731Z,44.66
2019-04-14T01:08:20.628Z,44.35
2019-04-14T01:10:47.712Z,43.34
2019-04-14T01:13:15.752Z,42.33
2019-04-14T01:15:52.624Z,41.98
2019-04-14T01:18:10.088Z,42.21
2019-04-14T01:20:38.437Z,42.49
2019-04-14T01:23:04.846Z,42.74
2019-04-14T01:25:32.494Z,42.92
2019-04-14T01:28:00.330Z,43.13
2019-04-14T01:30:28.320Z,43.13
2019-04-14T01:32:54.584Z,43.27
2019-04-14T01:35:22.749Z,43.22
2019-04-14T01:37:50.727Z,43.02
2019-04-14T01:40:18.432Z,43.21
2019-04-14T01:42:44.592Z,43.40
2019-04-14T01:45:12.212Z,43.37
2019-04-14T01:47:39.961Z,43.59
2019-04-14T01:50:07.008Z,43.66
2019-04-14T01:52:38.396Z,43.31
2019-04-14T01:55:11.205Z,43.19
2019-04-14T01:57:54.391Z,42.71
2019-04-14T02:03:15.200Z,41.62
2019-04-14T02:05:43.184Z,41.64
2019-04-14T02:08:11.125Z,41.21
2019-04-14T02:10:39.259Z,41.04
2019-04-14T02:13:07.078Z,41.37
2019-04-14T02:15:33.194Z,41.24
2019-04-14T02:18:00.987Z,40.84
2019-04-14T02:20:28.028Z,40.36
2019-04-14T02:22:55.446Z,40.14
2019-04-14T02:25:23.094Z,40.27
2019-04-14T02:27:51.405Z,40.61
2019-04-14T02:30:24.781Z,40.49
2019-04-14T02:33:20.169Z,40.82
2019-04-14T02:38:12.284Z,40.86
2019-04-14T02:40:36.460Z,40.67
2019-04-14T02:45:35.191Z,40.76
2019-04-14T02:48:07.199Z,41.14
2019-04-14T02:50:22.945Z,41.49
2019-04-14T02:52:57.007Z,41.72
2019-04-14T02:55:15.205Z,41.71
2019-04-14T02:57:49.449Z,41.56
2019-04-14T03:00:18.848Z,41.51
2019-04-14T03:02:44.238Z,41.39
2019-04-14T03:05:04.117Z,41.53
2019-04-14T03:07:36.149Z,41.71
2019-04-14T03:10:20.661Z,41.97
2019-04-14T03:15:07.162Z,42.28
2019-04-14T03:22:51.776Z,41.50
2019-04-14T03:25:06.062Z,41.74
2019-04-14T03:27:54.823Z,41.96
2019-04-14T03:30:38.898Z,42.48
2019-04-14T03:33:13.492Z,42.59
2019-04-14T03:35:47.926Z,42.75
2019-04-14T03:37:45.307Z,42.81
2019-04-14T03:40:00.712Z,42.86
2019-04-14T03:42:35.565Z,42.74
2019-04-14T03:45:00.490Z,42.88
2019-04-14T03:47:24.954Z,43.01
2019-04-14T03:49:53.830Z,43.20
2019-04-14T03:52:22.119Z,43.94
2019-04-14T03:54:45.506Z,44.02
2019-04-14T03:56:51.656Z,44.16
2019-04-14T03:59:19.604Z,44.14
2019-04-14T04:01:46.338Z,43.94
2019-04-14T04:04:14.039Z,43.63
2019-04-14T04:06:42.211Z,43.48
2019-04-14T04:09:08.793Z,43.48
2019-04-14T04:11:36.636Z,43.70
2019-04-14T04:14:03.602Z,44.08
2019-04-14T04:16:37.681Z,44.16
2019-04-14T04:19:13.647Z,44.07
2019-04-14T04:21:48.796Z,43.87
2019-04-14T04:24:33.492Z,43.74
2019-04-14T04:27:09.001Z,43.76
2019-04-14T04:29:39.799Z,43.75
2019-04-14T04:32:07.838Z,42.71
2019-04-14T04:34:36.331Z,42.48
2019-04-14T04:37:04.525Z,42.27
2019-04-14T04:39:36.111Z,42.13
2019-04-14T04:42:00.378Z,41.93
2019-04-14T04:44:27.612Z,41.91
2019-04-14T04:46:55.080Z,41.87
2019-04-14T04:49:26.052Z,41.85
2019-04-14T04:51:50.848Z,41.89
2019-04-14T04:54:17.336Z,42.17
2019-04-14T04:56:44.953Z,42.43
2019-04-14T04:59:12.659Z,42.59
2019-04-14T05:01:40.705Z,42.46
2019-04-14T05:04:07.008Z,42.30
2019-04-14T05:06:57.145Z,42.11
2019-04-14T05:09:27.970Z,41.91
2019-04-14T05:12:00.846Z,41.48
2019-04-14T05:14:30.566Z,40.74
2019-04-14T05:16:57.980Z,40.12
2019-04-14T05:19:30.343Z,39.86
2019-04-14T05:21:53.770Z,39.49
2019-04-14T05:24:20.275Z,39.45
2019-04-14T05:26:48.499Z,39.53
2019-04-14T05:29:15.086Z,39.56
2019-04-14T05:31:42.595Z,40.19
2019-04-14T05:34:10.775Z,40.59
2019-04-14T05:36:37.453Z,40.70
2019-04-14T05:39:04.921Z,40.38
2019-04-14T05:41:33.029Z,40.19
2019-04-14T05:44:01.531Z,39.97
2019-04-14T05:46:27.400Z,39.87
2019-04-14T05:48:55.662Z,39.90
2019-04-14T05:51:23.322Z,40.29
2019-04-14T05:53:50.168Z,40.27
2019-04-14T05:56:16.812Z,40.79
2019-04-14T05:58:44.747Z,40.36
2019-04-14T06:01:11.672Z,40.24
2019-04-14T06:03:39.059Z,40.17
2019-04-14T06:06:06.455Z,39.95
2019-04-14T06:08:33.864Z,39.93
2019-04-14T06:11:01.280Z,39.76
2019-04-14T06:13:28.685Z,39.77
2019-04-14T06:15:56.111Z,39.49
2019-04-14T06:18:23.515Z,39.43
2019-04-14T06:20:51.213Z,38.52
2019-04-14T06:23:18.605Z,38.00
2019-04-14T06:25:45.986Z,37.58
2019-04-14T06:28:13.401Z,37.11
2019-04-14T06:30:46.475Z,37.01
2019-04-14T06:33:18.401Z,37.23
2019-04-14T06:38:39.156Z,35.75
2019-04-14T06:41:06.954Z,36.04
2019-04-14T06:43:34.413Z,36.04
2019-04-14T06:46:01.803Z,36.26
2019-04-14T06:48:29.199Z,36.38
2019-04-14T06:50:56.792Z,36.41
2019-04-14T06:53:24.218Z,36.50
2019-04-14T06:55:51.627Z,36.80
2019-04-14T06:58:19.182Z,37.13
2019-04-14T07:00:46.673Z,37.46
2019-04-14T07:03:14.084Z,37.67
2019-04-14T07:05:41.549Z,37.86
2019-04-14T07:08:08.986Z,37.97
2019-04-14T07:10:36.400Z,37.94
2019-04-14T07:13:03.851Z,37.98
2019-04-14T07:15:31.261Z,38.73
2019-04-14T07:17:58.672Z,38.47
2019-04-14T07:20:26.114Z,38.72
2019-04-14T07:22:53.499Z,38.83
2019-04-14T07:25:20.899Z,38.61
2019-04-14T07:27:48.308Z,39.07
2019-04-14T07:30:19.450Z,39.07
2019-04-14T07:33:01.964Z,38.87
2019-04-14T07:35:30.342Z,39.01
2019-04-14T07:40:55.385Z,39.47
2019-04-14T07:43:23.181Z,39.62
2019-04-14T07:46:06.364Z,39.50
2019-04-14T07:48:43.692Z,39.57
2019-04-14T07:51:14.075Z,39.41
2019-04-14T07:56:35.046Z,39.56
2019-04-14T07:59:03.243Z,39.70
2019-04-14T08:01:35.588Z,40.19
2019-04-14T08:04:05.934Z,40.66
2019-04-14T08:06:33.339Z,40.57
2019-04-14T08:09:00.738Z,40.22
2019-04-14T08:11:28.159Z,40.59
2019-04-14T08:13:55.096Z,40.83
2019-04-14T08:16:22.054Z,40.19
2019-04-14T08:18:49.222Z,40.47
2019-04-14T08:21:16.184Z,40.69
2019-04-14T08:23:43.119Z,40.38
2019-04-14T08:26:10.048Z,39.73
2019-04-14T08:28:36.997Z,40.11
2019-04-14T08:31:03.931Z,40.52
2019-04-14T08:33:30.869Z,39.70
2019-04-14T08:35:57.814Z,39.15
2019-04-14T08:38:24.767Z,38.97
2019-04-14T08:40:51.722Z,39.66
2019-04-14T08:43:34.438Z,39.56
2019-04-14T08:46:07.203Z,38.77
2019-04-14T08:48:39.754Z,38.45
2019-04-14T08:51:10.529Z,38.44
2019-04-14T08:53:53.350Z,38.24
2019-04-14T08:56:27.398Z,37.82
2019-04-14T08:59:00.501Z,37.67
2019-04-14T09:01:30.499Z,37.92
2019-04-14T09:03:58.414Z,38.29
2019-04-14T09:06:25.806Z,38.75
2019-04-14T09:09:03.182Z,39.58
2019-04-14T09:11:30.611Z,39.60
2019-04-14T09:13:58.014Z,38.88
2019-04-14T09:16:25.479Z,38.36
2019-04-14T09:18:53.765Z,38.86
2019-04-14T09:21:20.324Z,38.75
2019-04-14T09:23:47.731Z,38.35
2019-04-14T09:26:15.162Z,38.04
2019-04-14T09:28:42.572Z,37.75
2019-04-14T09:31:10.006Z,36.95
2019-04-14T09:33:38.184Z,36.16
2019-04-14T09:36:05.606Z,36.39
2019-04-14T09:38:33.212Z,36.90
2019-04-14T09:41:00.835Z,36.33
2019-04-14T09:43:28.392Z,34.73
2019-04-14T09:45:55.792Z,35.50
2019-04-14T09:48:23.205Z,35.76
2019-04-14T09:50:50.656Z,34.21
2019-04-14T09:53:18.069Z,33.64
2019-04-14T09:55:45.505Z,32.90
2019-04-14T09:58:12.975Z,33.84
2019-04-14T10:00:40.377Z,34.69
2019-04-14T10:03:07.805Z,35.14
2019-04-14T10:05:35.218Z,36.01
2019-04-14T10:08:02.648Z,35.05
2019-04-14T10:10:30.049Z,35.49
2019-04-14T10:12:57.497Z,34.59
2019-04-14T10:15:24.909Z,33.21
2019-04-14T10:17:52.343Z,32.47
2019-04-14T10:20:19.736Z,32.72
2019-04-14T10:22:47.130Z,32.61
2019-04-14T10:25:14.584Z,32.55
2019-04-14T10:27:41.985Z,32.58
2019-04-14T10:30:09.409Z,32.68
2019-04-14T10:32:36.825Z,32.99
2019-04-14T10:35:04.318Z,32.67
2019-04-14T10:37:31.719Z,32.60
2019-04-14T10:39:59.161Z,32.82
2019-04-14T10:42:26.585Z,32.29
2019-04-14T10:44:54.039Z,30.98
2019-04-14T10:47:21.454Z,30.21
2019-04-14T10:49:48.859Z,29.68
2019-04-14T10:52:16.286Z,28.42
2019-04-14T10:54:43.710Z,27.92
2019-04-14T10:57:11.219Z,28.74
2019-04-14T10:59:38.626Z,28.39
2019-04-14T11:02:06.024Z,28.09
2019-04-14T11:04:33.458Z,27.57
2019-04-14T11:07:01.359Z,27.97
2019-04-14T11:09:28.764Z,28.16
2019-04-14T11:11:56.172Z,27.87
2019-04-14T11:14:23.599Z,27.77
2019-04-14T11:16:51.013Z,28.09
2019-04-14T11:19:18.573Z,28.79
2019-04-14T11:21:46.001Z,27.99
2019-04-14T11:24:13.399Z,27.59
2019-04-14T11:26:40.821Z,27.26
2019-04-14T11:29:08.223Z,26.94
2019-04-14T11:31:41.450Z,25.85
2019-04-14T11:34:08.868Z,25.57
2019-04-14T11:36:41.835Z,25.52
2019-04-14T11:39:09.361Z,25.71
2019-04-14T11:41:36.750Z,25.54
2019-04-14T11:44:04.227Z,25.09
2019-04-14T11:46:31.615Z,24.87
2019-04-14T11:48:59.031Z,23.76
2019-04-14T11:51:26.567Z,23.47
2019-04-14T11:53:53.970Z,23.61
2019-04-14T11:56:21.400Z,23.56
2019-04-14T11:58:48.826Z,23.80
2019-04-14T12:04:13.167Z,23.02
2019-04-14T12:06:57.407Z,22.49
2019-04-14T12:09:27.367Z,22.08
2019-04-14T12:11:54.857Z,22.18
2019-04-14T12:14:22.260Z,21.76
2019-04-14T12:16:49.711Z,21.71
2019-04-14T12:19:17.121Z,22.10
2019-04-14T12:21:44.579Z,21.97
2019-04-14T12:24:11.958Z,22.75
2019-04-14T12:26:39.370Z,22.46
2019-04-14T12:29:06.772Z,21.81
2019-04-14T12:31:35.236Z,21.38
2019-04-14T12:34:01.811Z,21.18
2019-04-14T12:36:29.214Z,21.42
2019-04-14T12:38:56.607Z,21.36
2019-04-14T12:41:39.934Z,21.91
2019-04-14T12:44:24.144Z,23.23
2019-04-14T12:46:52.540Z,22.62
2019-04-14T12:49:23.306Z,21.91
2019-04-14T12:52:07.300Z,22.74
2019-04-14T12:54:34.726Z,22.20
2019-04-14T12:57:02.135Z,22.73
2019-04-14T12:59:29.593Z,23.67
2019-04-14T13:01:57.150Z,23.35
2019-04-14T13:04:24.590Z,23.37
2019-04-14T13:06:51.995Z,22.94
2019-04-14T13:09:19.453Z,22.48
2019-04-14T13:11:46.886Z,22.79
2019-04-14T13:14:14.314Z,22.65
2019-04-14T13:16:41.896Z,23.01
2019-04-14T13:19:09.343Z,22.44
2019-04-14T13:21:36.872Z,20.82
2019-04-14T13:24:04.291Z,20.46
2019-04-14T13:26:31.719Z,20.21
2019-04-14T13:28:59.149Z,20.13
2019-04-14T13:31:26.572Z,20.07
2019-04-14T13:33:54.963Z,19.50
2019-04-14T13:36:21.449Z,19.43
2019-04-14T13:38:48.864Z,19.77
2019-04-14T13:41:16.301Z,20.25
2019-04-14T13:43:43.765Z,20.36
2019-04-14T13:46:11.181Z,19.84
2019-04-14T13:48:38.617Z,19.98
2019-04-14T13:51:06.060Z,20.05
2019-04-14T13:53:33.492Z,20.95
2019-04-14T13:56:02.203Z,21.54
2019-04-14T13:58:29.625Z,21.60
2019-04-14T14:00:57.131Z,22.24
2019-04-14T14:03:24.559Z,22.29
2019-04-14T14:05:51.979Z,22.03
2019-04-14T14:08:19.427Z,21.74
2019-04-14T14:10:46.895Z,21.74
2019-04-14T14:13:20.081Z,22.02
2019-04-14T14:15:53.000Z,22.30
2019-04-14T14:18:26.159Z,22.53
2019-04-14T14:20:53.909Z,22.58
2019-04-14T14:23:27.882Z,22.72
2019-04-14T14:28:46.739Z,22.97
2019-04-14T14:31:14.147Z,23.14
2019-04-14T14:33:41.566Z,23.17
2019-04-14T14:36:08.989Z,23.52
2019-04-14T14:41:10.096Z,22.99
2019-04-14T14:43:37.571Z,22.95
2019-04-14T14:48:59.951Z,24.59
2019-04-14T14:51:32.775Z,24.35
2019-04-14T14:54:00.207Z,24.14
2019-04-14T14:56:27.719Z,23.71
2019-04-14T14:58:55.199Z,23.72
2019-04-14T15:01:22.608Z,24.15
2019-04-14T15:03:50.002Z,24.94
2019-04-14T15:06:17.407Z,25.33
2019-04-14T15:08:44.875Z,25.91
2019-04-14T15:11:12.321Z,26.30
2019-04-14T15:13:39.779Z,27.19
2019-04-14T15:16:07.218Z,26.63
2019-04-14T15:18:34.664Z,25.74
2019-04-14T15:21:02.111Z,25.16
2019-04-14T15:23:29.551Z,25.10
2019-04-14T15:25:57.185Z,25.46
2019-04-14T15:28:24.646Z,25.79
2019-04-14T15:30:52.062Z,26.31
2019-04-14T15:33:19.482Z,26.69
2019-04-14T15:35:46.882Z,27.01
2019-04-14T15:38:14.428Z,27.34
2019-04-14T15:40:41.868Z,27.71
2019-04-14T15:43:09.279Z,27.71
2019-04-14T15:45:36.695Z,27.76
2019-04-14T15:48:04.197Z,28.90
2019-04-14T15:50:31.604Z,29.18
2019-04-14T15:52:59.074Z,29.34
2019-04-14T15:55:26.550Z,30.04
2019-04-14T15:57:54.000Z,30.09
2019-04-14T16:00:25.792Z,30.85
2019-04-14T16:03:03.159Z,31.53
2019-04-14T16:05:30.936Z,31.50
2019-04-14T16:08:03.909Z,31.61
2019-04-14T16:10:38.918Z,31.49
2019-04-14T16:13:06.331Z,31.31
2019-04-14T16:18:33.346Z,31.99
2019-04-14T16:21:00.746Z,32.76
2019-04-14T16:23:28.171Z,32.75
2019-04-14T16:25:56.370Z,33.12
2019-04-14T16:28:27.309Z,33.15
2019-04-14T16:31:11.516Z,33.12
2019-04-14T16:33:44.496Z,33.18
2019-04-14T16:36:11.918Z,33.58
2019-04-14T16:38:39.324Z,34.16
2019-04-14T16:41:06.725Z,35.08
2019-04-14T16:43:34.144Z,36.02
2019-04-14T16:46:02.532Z,36.42
2019-04-14T16:48:29.967Z,36.80
2019-04-14T16:50:59.802Z,37.15
2019-04-14T16:53:25.338Z,37.80
2019-04-14T16:58:48.293Z,38.74
2019-04-14T17:01:16.213Z,39.43
2019-04-14T17:03:43.673Z,39.36
2019-04-14T17:06:11.076Z,39.47
2019-04-14T17:08:38.485Z,39.84
2019-04-14T17:11:05.943Z,39.90
2019-04-14T17:13:33.360Z,40.34
2019-04-14T17:16:06.423Z,40.56
2019-04-14T17:18:34.658Z,40.68
2019-04-14T17:23:55.078Z,41.02
2019-04-14T17:26:23.324Z,41.26
2019-04-14T17:28:56.076Z,41.98
2019-04-14T17:31:23.831Z,42.03
2019-04-14T17:34:11.635Z,42.79
2019-04-14T17:36:50.769Z,43.55
2019-04-14T17:39:21.580Z,43.89
2019-04-14T17:41:54.577Z,43.87
2019-04-14T17:44:25.527Z,44.54
2019-04-14T17:46:58.448Z,44.66
2019-04-14T17:49:26.977Z,44.88
2019-04-14T17:54:51.415Z,44.67
2019-04-14T18:00:10.997Z,44.34
2019-04-14T18:02:40.896Z,44.62
2019-04-14T18:05:11.750Z,44.99
2019-04-14T18:07:41.071Z,45.27
2019-04-14T18:10:09.334Z,45.02
2019-04-14T18:12:37.599Z,44.89
2019-04-14T18:15:21.701Z,44.94
2019-04-14T18:18:08.802Z,45.72
2019-04-14T18:20:39.758Z,45.91
2019-04-14T18:23:07.157Z,45.92
2019-04-14T18:25:34.578Z,46.65
2019-04-14T18:28:21.738Z,46.69
2019-04-14T18:33:48.000Z,46.81
2019-04-14T18:36:18.201Z,46.81
2019-04-14T18:38:45.606Z,47.25
2019-04-14T18:41:18.432Z,47.11
2019-04-14T18:43:47.747Z,47.05
2019-04-14T18:46:34.889Z,46.94
2019-04-14T18:49:03.074Z,47.37
2019-04-14T18:51:32.056Z,47.30
2019-04-14T18:53:59.931Z,47.63
2019-04-14T18:56:33.026Z,47.80
2019-04-14T18:59:02.930Z,48.17
2019-04-14T19:01:30.651Z,48.25
2019-04-14T19:03:58.051Z,48.48
2019-04-14T19:06:25.458Z,48.69
2019-04-14T19:08:52.887Z,49.05
2019-04-14T19:11:24.819Z,49.56
2019-04-14T19:13:52.996Z,49.86
2019-04-14T19:16:38.169Z,50.01
2019-04-14T19:18:58.122Z,50.10
2019-04-14T19:21:26.355Z,50.22
2019-04-14T19:23:53.776Z,50.25
2019-04-14T19:26:21.242Z,50.22
2019-04-14T19:28:48.625Z,50.55
2019-04-14T19:31:16.124Z,50.62
2019-04-14T19:33:43.481Z,51.02
2019-04-14T19:36:10.881Z,51.08
2019-04-14T19:38:38.329Z,51.23
2019-04-14T19:41:05.748Z,51.28
2019-04-14T19:43:33.187Z,51.36
2019-04-14T19:46:00.563Z,51.59
2019-04-14T19:48:28.119Z,51.77
2019-04-14T19:50:55.603Z,51.91
2019-04-14T19:53:23.001Z,52.29
2019-04-14T19:55:50.413Z,52.12
2019-04-14T19:58:17.813Z,51.91
2019-04-14T20:00:45.268Z,52.19
2019-04-14T20:03:12.702Z,52.34
2019-04-14T20:05:40.115Z,52.53
2019-04-14T20:08:07.521Z,52.54
2019-04-14T20:10:34.924Z,52.55
2019-04-14T20:13:02.335Z,52.54
2019-04-14T20:15:32.364Z,52.72
2019-04-14T20:18:00.220Z,52.57
2019-04-14T20:20:33.275Z,52.75
2019-04-14T20:23:04.150Z,52.93
2019-04-14T20:25:37.152Z,53.36
2019-04-14T20:28:06.327Z,53.62
2019-04-14T20:30:35.082Z,53.81
2019-04-14T20:33:02.499Z,53.94
2019-04-14T20:35:29.921Z,54.15
2019-04-14T20:37:57.340Z,54.30
2019-04-14T20:40:24.740Z,54.42
2019-04-14T20:42:52.222Z,54.46
2019-04-14T20:45:19.665Z,54.49
2019-04-14T20:47:47.157Z,54.55
2019-04-14T20:50:14.599Z,54.88
2019-04-14T20:52:42.042Z,55.15
2019-04-14T20:55:09.457Z,55.31
2019-04-14T20:57:36.878Z,55.33
2019-04-14T21:00:04.309Z,55.46
2019-04-14T21:02:31.739Z,55.74
2019-04-14T21:07:57.159Z,55.63
2019-04-14T21:10:25.395Z,55.41
2019-04-14T21:12:54.191Z,56.03
2019-04-14T21:15:40.512Z,56.26
2019-04-14T21:18:08.783Z,56.16
2019-04-14T21:20:41.973Z,56.25
2019-04-14T21:23:11.154Z,56.07
2019-04-14T21:25:38.554Z,56.19
2019-04-14T21:28:25.622Z,56.27
2019-04-14T21:30:56.912Z,56.23
2019-04-14T21:33:28.203Z,56.12
2019-04-14T21:36:04.044Z,56.10
2019-04-14T21:38:36.997Z,56.14
2019-04-14T21:41:07.984Z,56.03
2019-04-14T21:43:35.415Z,55.93
2019-04-14T21:46:02.834Z,55.99
2019-04-14T21:48:30.250Z,56.05
2019-04-14T21:50:57.678Z,56.17
2019-04-14T21:53:25.087Z,56.46
2019-04-14T21:55:52.488Z,56.47
2019-04-14T21:58:23.253Z,56.42
2019-04-14T22:03:55.422Z,56.12
2019-04-14T22:06:24.287Z,56.09
2019-04-14T22:08:53.186Z,56.28
2019-04-14T22:11:20.939Z,56.15
2019-04-14T22:13:50.739Z,55.92
2019-04-14T22:16:15.804Z,55.79
2019-04-14T22:18:43.222Z,55.73
2019-04-14T22:21:10.659Z,55.91
2019-04-14T22:23:38.078Z,56.07
2019-04-14T22:26:05.933Z,56.37
2019-04-14T22:28:33.339Z,56.53
2019-04-14T22:31:00.774Z,56.80
2019-04-14T22:33:28.182Z,56.79
2019-04-14T22:35:55.613Z,56.76
2019-04-14T22:38:23.018Z,56.92
2019-04-14T22:40:50.669Z,57.09
2019-04-14T22:43:18.138Z,57.11
2019-04-14T22:45:45.543Z,57.35
2019-04-14T22:48:12.950Z,57.40
2019-04-14T22:50:40.398Z,57.40
2019-04-14T22:53:07.819Z,57.56
2019-04-14T22:55:35.432Z,57.74
2019-04-14T22:58:02.848Z,58.19
2019-04-14T23:03:35.781Z,58.41
2019-04-14T23:06:04.734Z,58.23
2019-04-14T23:08:37.756Z,58.21
2019-04-14T23:11:08.689Z,58.21
2019-04-14T23:16:48.203Z,58.43
2019-04-14T23:19:16.088Z,58.20
2019-04-14T23:21:44.399Z,58.38
2019-04-14T23:24:11.811Z,58.44
2019-04-14T23:26:51.428Z,58.48
2019-04-14T23:29:06.697Z,58.83
2019-04-14T23:31:34.124Z,58.97
2019-04-14T23:34:01.536Z,58.93
2019-04-14T23:36:29.005Z,58.92
2019-04-14T23:38:56.418Z,58.89
2019-04-14T23:41:23.849Z,58.77
2019-04-14T23:43:51.265Z,58.85
2019-04-14T23:46:18.670Z,59.03
2019-04-14T23:48:46.099Z,59.12
2019-04-14T23:51:13.623Z,59.32
2019-04-14T23:53:40.931Z,59.64
2019-04-14T23:56:08.319Z,59.82
2019-04-14T23:58:35.754Z,59.88
